sensor_id;sensor_type;location;lat;lon;timestamp;pressure;altitude;pressure_sealevel;temperature;humidity
54920;BME280;63804;53.120;8.764;2023-04-26T00:02:15;101683.03;;;7.38;63.72
54920;BME280;63804;53.120;8.764;2023-04-26T00:04:53;101692.97;;;7.31;64.12
54920;BME280;63804;53.120;8.764;2023-04-26T00:07:25;101688.31;;;7.17;64.44
54920;BME280;63804;53.120;8.764;2023-04-26T00:09:52;101693.88;;;7.11;64.38
54920;BME280;63804;53.120;8.764;2023-04-26T00:12:19;101693.78;;;7.13;64.40
54920;BME280;63804;53.120;8.764;2023-04-26T00:14:49;101696.94;;;7.21;64.23
54920;BME280;63804;53.120;8.764;2023-04-26T00:17:16;101697.75;;;7.23;64.31
54920;BME280;63804;53.120;8.764;2023-04-26T00:19:46;101693.16;;;7.07;64.62
54920;BME280;63804;53.120;8.764;2023-04-26T00:22:15;101695.78;;;7.07;64.84
54920;BME280;63804;53.120;8.764;2023-04-26T00:24:45;101694.81;;;7.10;64.79
54920;BME280;63804;53.120;8.764;2023-04-26T00:27:12;101695.16;;;7.02;65.24
54920;BME280;63804;53.120;8.764;2023-04-26T00:29:39;101702.88;;;7.05;65.16
54920;BME280;63804;53.120;8.764;2023-04-26T00:32:06;101690.53;;;7.07;64.99
54920;BME280;63804;53.120;8.764;2023-04-26T00:34:35;101695.06;;;7.04;65.12
54920;BME280;63804;53.120;8.764;2023-04-26T00:37:06;101685.72;;;6.97;65.18
54920;BME280;63804;53.120;8.764;2023-04-26T00:39:33;101692.16;;;6.90;65.17
54920;BME280;63804;53.120;8.764;2023-04-26T00:42:03;101701.25;;;6.82;65.61
54920;BME280;63804;53.120;8.764;2023-04-26T00:44:33;101699.22;;;6.89;65.53
54920;BME280;63804;53.120;8.764;2023-04-26T00:47:01;101699.84;;;6.94;65.43
54920;BME280;63804;53.120;8.764;2023-04-26T00:49:32;101694.59;;;6.94;65.49
54920;BME280;63804;53.120;8.764;2023-04-26T00:52:02;101695.41;;;6.96;65.30
54920;BME280;63804;53.120;8.764;2023-04-26T00:54:29;101709.81;;;6.88;65.47
54920;BME280;63804;53.120;8.764;2023-04-26T00:56:56;101700.47;;;6.80;65.70
54920;BME280;63804;53.120;8.764;2023-04-26T00:59:25;101696.31;;;6.75;65.94
54920;BME280;63804;53.120;8.764;2023-04-26T01:01:54;101697.13;;;6.77;66.16
54920;BME280;63804;53.120;8.764;2023-04-26T01:04:21;101699.53;;;6.81;65.62
54920;BME280;63804;53.120;8.764;2023-04-26T01:06:56;101701.44;;;6.78;65.90
54920;BME280;63804;53.120;8.764;2023-04-26T01:09:25;101694.56;;;6.75;65.76
54920;BME280;63804;53.120;8.764;2023-04-26T01:11:55;101697.38;;;6.71;66.11
54920;BME280;63804;53.120;8.764;2023-04-26T01:14:26;101700.94;;;6.70;65.99
54920;BME280;63804;53.120;8.764;2023-04-26T01:16:56;101713.75;;;6.77;65.59
54920;BME280;63804;53.120;8.764;2023-04-26T01:19:27;101718.94;;;6.79;65.61
54920;BME280;63804;53.120;8.764;2023-04-26T01:21:53;101725.53;;;6.69;65.99
54920;BME280;63804;53.120;8.764;2023-04-26T01:24:21;101725.66;;;6.66;66.33
54920;BME280;63804;53.120;8.764;2023-04-26T01:26:51;101728.38;;;6.64;66.16
54920;BME280;63804;53.120;8.764;2023-04-26T01:29:20;101722.06;;;6.68;66.23
54920;BME280;63804;53.120;8.764;2023-04-26T01:31:47;101723.25;;;6.81;65.71
54920;BME280;63804;53.120;8.764;2023-04-26T01:34:15;101716.00;;;6.87;65.69
54920;BME280;63804;53.120;8.764;2023-04-26T01:36:42;101707.91;;;6.91;65.18
54920;BME280;63804;53.120;8.764;2023-04-26T01:39:09;101707.63;;;6.97;64.86
54920;BME280;63804;53.120;8.764;2023-04-26T01:41:36;101699.53;;;7.02;65.23
54920;BME280;63804;53.120;8.764;2023-04-26T01:44:03;101698.16;;;6.93;65.68
54920;BME280;63804;53.120;8.764;2023-04-26T01:46:30;101703.44;;;6.93;65.60
54920;BME280;63804;53.120;8.764;2023-04-26T01:48:57;101706.66;;;7.00;65.45
54920;BME280;63804;53.120;8.764;2023-04-26T01:51:25;101701.31;;;7.01;65.58
54920;BME280;63804;53.120;8.764;2023-04-26T01:53:55;101705.81;;;6.99;65.84
54920;BME280;63804;53.120;8.764;2023-04-26T01:56:25;101704.16;;;6.97;65.97
54920;BME280;63804;53.120;8.764;2023-04-26T01:58:55;101704.47;;;6.89;66.14
54920;BME280;63804;53.120;8.764;2023-04-26T02:01:23;101707.91;;;6.91;66.55
54920;BME280;63804;53.120;8.764;2023-04-26T02:03:51;101707.41;;;6.83;66.73
54920;BME280;63804;53.120;8.764;2023-04-26T02:06:19;101712.06;;;6.76;66.94
54920;BME280;63804;53.120;8.764;2023-04-26T02:08:47;101706.91;;;6.73;66.89
54920;BME280;63804;53.120;8.764;2023-04-26T02:11:15;101711.94;;;6.79;67.00
54920;BME280;63804;53.120;8.764;2023-04-26T02:13:42;101705.09;;;6.75;66.96
54920;BME280;63804;53.120;8.764;2023-04-26T02:16:09;101716.63;;;6.71;66.87
54920;BME280;63804;53.120;8.764;2023-04-26T02:18:39;101715.13;;;6.66;67.02
54920;BME280;63804;53.120;8.764;2023-04-26T02:21:10;101708.91;;;6.68;67.09
54920;BME280;63804;53.120;8.764;2023-04-26T02:23:37;101707.88;;;6.71;66.87
54920;BME280;63804;53.120;8.764;2023-04-26T02:26:05;101716.72;;;6.70;66.91
54920;BME280;63804;53.120;8.764;2023-04-26T02:28:32;101710.16;;;6.80;66.73
54920;BME280;63804;53.120;8.764;2023-04-26T02:31:01;101710.06;;;6.81;66.46
54920;BME280;63804;53.120;8.764;2023-04-26T02:33:28;101714.00;;;6.71;66.69
54920;BME280;63804;53.120;8.764;2023-04-26T02:35:55;101714.16;;;6.68;66.80
54920;BME280;63804;53.120;8.764;2023-04-26T02:38:23;101715.34;;;6.61;66.96
54920;BME280;63804;53.120;8.764;2023-04-26T02:40:58;101713.22;;;6.69;66.77
54920;BME280;63804;53.120;8.764;2023-04-26T02:43:25;101711.03;;;6.58;66.86
54920;BME280;63804;53.120;8.764;2023-04-26T02:45:55;101707.44;;;6.61;66.84
54920;BME280;63804;53.120;8.764;2023-04-26T02:48:25;101706.84;;;6.54;67.18
54920;BME280;63804;53.120;8.764;2023-04-26T02:50:52;101700.22;;;6.44;67.28
54920;BME280;63804;53.120;8.764;2023-04-26T02:53:19;101706.28;;;6.46;67.04
54920;BME280;63804;53.120;8.764;2023-04-26T02:55:47;101709.78;;;6.47;67.43
54920;BME280;63804;53.120;8.764;2023-04-26T02:58:15;101705.25;;;6.50;67.12
54920;BME280;63804;53.120;8.764;2023-04-26T03:00:46;101715.38;;;6.59;66.94
54920;BME280;63804;53.120;8.764;2023-04-26T03:03:16;101709.69;;;6.48;67.19
54920;BME280;63804;53.120;8.764;2023-04-26T03:05:46;101713.78;;;6.55;67.30
54920;BME280;63804;53.120;8.764;2023-04-26T03:08:13;101722.63;;;6.54;67.04
54920;BME280;63804;53.120;8.764;2023-04-26T03:10:43;101712.00;;;6.56;67.22
54920;BME280;63804;53.120;8.764;2023-04-26T03:13:10;101720.72;;;6.58;66.90
54920;BME280;63804;53.120;8.764;2023-04-26T03:15:37;101719.00;;;6.57;67.24
54920;BME280;63804;53.120;8.764;2023-04-26T03:18:04;101716.53;;;6.52;67.08
54920;BME280;63804;53.120;8.764;2023-04-26T03:20:31;101717.84;;;6.64;66.65
54920;BME280;63804;53.120;8.764;2023-04-26T03:22:59;101712.94;;;6.55;66.99
54920;BME280;63804;53.120;8.764;2023-04-26T03:25:28;101713.88;;;6.54;66.82
54920;BME280;63804;53.120;8.764;2023-04-26T03:27:56;101723.53;;;6.53;67.09
54920;BME280;63804;53.120;8.764;2023-04-26T03:30:23;101725.63;;;6.45;67.30
54920;BME280;63804;53.120;8.764;2023-04-26T03:32:50;101730.09;;;6.43;67.34
54920;BME280;63804;53.120;8.764;2023-04-26T03:35:18;101715.34;;;6.39;67.69
54920;BME280;63804;53.120;8.764;2023-04-26T03:37:45;101718.72;;;6.43;67.53
54920;BME280;63804;53.120;8.764;2023-04-26T03:40:12;101724.72;;;6.46;67.86
54920;BME280;63804;53.120;8.764;2023-04-26T03:42:39;101715.78;;;6.50;67.50
54920;BME280;63804;53.120;8.764;2023-04-26T03:45:07;101714.84;;;6.51;67.52
54920;BME280;63804;53.120;8.764;2023-04-26T03:47:36;101719.34;;;6.49;67.55
54920;BME280;63804;53.120;8.764;2023-04-26T03:50:06;101721.47;;;6.40;67.64
54920;BME280;63804;53.120;8.764;2023-04-26T03:52:34;101712.09;;;6.32;67.93
54920;BME280;63804;53.120;8.764;2023-04-26T03:55:01;101715.00;;;6.26;68.26
54920;BME280;63804;53.120;8.764;2023-04-26T03:57:32;101716.81;;;6.24;68.23
54920;BME280;63804;53.120;8.764;2023-04-26T03:59:59;101719.53;;;6.23;68.15
54920;BME280;63804;53.120;8.764;2023-04-26T04:02:26;101715.97;;;6.24;68.22
54920;BME280;63804;53.120;8.764;2023-04-26T04:04:53;101710.31;;;6.33;68.18
54920;BME280;63804;53.120;8.764;2023-04-26T04:07:20;101713.03;;;6.31;67.56
54920;BME280;63804;53.120;8.764;2023-04-26T04:09:47;101708.75;;;6.29;67.74
54920;BME280;63804;53.120;8.764;2023-04-26T04:12:18;101707.69;;;6.33;67.82
54920;BME280;63804;53.120;8.764;2023-04-26T04:14:47;101709.44;;;6.34;67.55
54920;BME280;63804;53.120;8.764;2023-04-26T04:17:14;101715.34;;;6.17;68.18
54920;BME280;63804;53.120;8.764;2023-04-26T04:19:41;101717.75;;;6.23;67.88
54920;BME280;63804;53.120;8.764;2023-04-26T04:22:13;101708.69;;;6.30;67.52
54920;BME280;63804;53.120;8.764;2023-04-26T04:24:43;101717.25;;;6.35;67.39
54920;BME280;63804;53.120;8.764;2023-04-26T04:27:10;101723.06;;;6.44;67.19
54920;BME280;63804;53.120;8.764;2023-04-26T04:29:37;101719.34;;;6.49;66.66
54920;BME280;63804;53.120;8.764;2023-04-26T04:32:04;101717.91;;;6.41;67.06
54920;BME280;63804;53.120;8.764;2023-04-26T04:34:37;101716.19;;;6.40;66.92
54920;BME280;63804;53.120;8.764;2023-04-26T04:37:05;101715.28;;;6.41;67.41
54920;BME280;63804;53.120;8.764;2023-04-26T04:39:32;101716.69;;;6.49;66.81
54920;BME280;63804;53.120;8.764;2023-04-26T04:42:03;101721.28;;;6.44;67.02
54920;BME280;63804;53.120;8.764;2023-04-26T04:44:31;101720.50;;;6.42;66.69
54920;BME280;63804;53.120;8.764;2023-04-26T04:46:58;101722.19;;;6.43;67.08
54920;BME280;63804;53.120;8.764;2023-04-26T04:49:28;101725.88;;;6.39;67.06
54920;BME280;63804;53.120;8.764;2023-04-26T04:51:57;101721.53;;;6.38;66.92
54920;BME280;63804;53.120;8.764;2023-04-26T04:54:24;101732.38;;;6.30;67.22
54920;BME280;63804;53.120;8.764;2023-04-26T04:56:51;101725.63;;;6.23;67.35
54920;BME280;63804;53.120;8.764;2023-04-26T04:59:18;101732.41;;;6.29;67.24
54920;BME280;63804;53.120;8.764;2023-04-26T05:01:45;101739.16;;;6.36;66.96
54920;BME280;63804;53.120;8.764;2023-04-26T05:04:12;101741.34;;;6.47;66.83
54920;BME280;63804;53.120;8.764;2023-04-26T05:06:43;101736.22;;;6.44;66.81
54920;BME280;63804;53.120;8.764;2023-04-26T05:09:10;101736.91;;;6.49;66.70
54920;BME280;63804;53.120;8.764;2023-04-26T05:11:37;101731.63;;;6.49;67.08
54920;BME280;63804;53.120;8.764;2023-04-26T05:14:04;101728.13;;;6.48;66.91
54920;BME280;63804;53.120;8.764;2023-04-26T05:16:31;101732.94;;;6.59;66.61
54920;BME280;63804;53.120;8.764;2023-04-26T05:18:58;101726.72;;;6.62;66.22
54920;BME280;63804;53.120;8.764;2023-04-26T05:21:28;101729.06;;;6.68;66.14
54920;BME280;63804;53.120;8.764;2023-04-26T05:23:55;101733.47;;;6.67;66.42
54920;BME280;63804;53.120;8.764;2023-04-26T05:26:25;101732.00;;;6.82;66.37
54920;BME280;63804;53.120;8.764;2023-04-26T05:28:52;101740.41;;;6.90;65.83
54920;BME280;63804;53.120;8.764;2023-04-26T05:31:19;101734.16;;;6.93;66.07
54920;BME280;63804;53.120;8.764;2023-04-26T05:33:48;101736.59;;;6.97;65.92
54920;BME280;63804;53.120;8.764;2023-04-26T05:36:18;101734.78;;;6.99;65.67
54920;BME280;63804;53.120;8.764;2023-04-26T05:38:45;101731.22;;;7.00;65.31
54920;BME280;63804;53.120;8.764;2023-04-26T05:41:12;101732.34;;;6.95;65.61
54920;BME280;63804;53.120;8.764;2023-04-26T05:43:40;101730.75;;;7.11;65.04
54920;BME280;63804;53.120;8.764;2023-04-26T05:46:06;101732.25;;;7.17;64.94
54920;BME280;63804;53.120;8.764;2023-04-26T05:48:36;101736.78;;;7.13;64.69
54920;BME280;63804;53.120;8.764;2023-04-26T05:51:06;101737.00;;;7.08;64.72
54920;BME280;63804;53.120;8.764;2023-04-26T05:53:33;101736.75;;;7.15;64.77
54920;BME280;63804;53.120;8.764;2023-04-26T05:56:00;101742.28;;;7.29;64.36
54920;BME280;63804;53.120;8.764;2023-04-26T05:58:29;101732.88;;;7.42;64.36
54920;BME280;63804;53.120;8.764;2023-04-26T06:00:56;101743.44;;;7.42;63.69
54920;BME280;63804;53.120;8.764;2023-04-26T06:03:23;101735.25;;;7.48;63.83
54920;BME280;63804;53.120;8.764;2023-04-26T06:05:52;101736.25;;;7.46;63.94
54920;BME280;63804;53.120;8.764;2023-04-26T06:08:19;101729.97;;;7.48;64.07
54920;BME280;63804;53.120;8.764;2023-04-26T06:10:50;101738.88;;;7.46;64.20
54920;BME280;63804;53.120;8.764;2023-04-26T06:13:20;101738.59;;;7.52;64.41
54920;BME280;63804;53.120;8.764;2023-04-26T06:15:49;101733.19;;;7.55;64.19
54920;BME280;63804;53.120;8.764;2023-04-26T06:18:18;101742.34;;;7.46;64.40
54920;BME280;63804;53.120;8.764;2023-04-26T06:20:53;101744.16;;;7.46;64.33
54920;BME280;63804;53.120;8.764;2023-04-26T06:23:20;101747.75;;;7.43;63.58
54920;BME280;63804;53.120;8.764;2023-04-26T06:25:52;101747.00;;;7.41;63.76
54920;BME280;63804;53.120;8.764;2023-04-26T06:28:19;101749.84;;;7.37;63.81
54920;BME280;63804;53.120;8.764;2023-04-26T06:30:46;101749.34;;;7.47;63.21
54920;BME280;63804;53.120;8.764;2023-04-26T06:33:13;101753.63;;;7.50;62.46
54920;BME280;63804;53.120;8.764;2023-04-26T06:35:42;101762.81;;;7.41;62.57
54920;BME280;63804;53.120;8.764;2023-04-26T06:38:12;101764.81;;;7.55;62.63
54920;BME280;63804;53.120;8.764;2023-04-26T06:40:42;101760.25;;;7.58;62.60
54920;BME280;63804;53.120;8.764;2023-04-26T06:43:09;101770.66;;;7.62;62.88
54920;BME280;63804;53.120;8.764;2023-04-26T06:45:42;101770.63;;;7.63;63.09
54920;BME280;63804;53.120;8.764;2023-04-26T06:48:09;101768.97;;;7.61;63.13
54920;BME280;63804;53.120;8.764;2023-04-26T06:50:39;101769.59;;;7.66;63.22
54920;BME280;63804;53.120;8.764;2023-04-26T06:53:06;101772.97;;;7.69;62.75
54920;BME280;63804;53.120;8.764;2023-04-26T06:55:33;101776.94;;;7.78;62.37
54920;BME280;63804;53.120;8.764;2023-04-26T06:58:04;101776.81;;;7.81;62.41
54920;BME280;63804;53.120;8.764;2023-04-26T07:00:34;101771.53;;;7.81;62.62
54920;BME280;63804;53.120;8.764;2023-04-26T07:03:01;101782.09;;;7.81;62.16
54920;BME280;63804;53.120;8.764;2023-04-26T07:05:31;101787.34;;;7.81;62.40
54920;BME280;63804;53.120;8.764;2023-04-26T07:07:58;101782.16;;;7.79;62.44
54920;BME280;63804;53.120;8.764;2023-04-26T07:10:25;101780.25;;;7.83;62.53
54920;BME280;63804;53.120;8.764;2023-04-26T07:12:53;101780.16;;;7.85;62.41
54920;BME280;63804;53.120;8.764;2023-04-26T07:15:20;101774.69;;;7.89;61.49
54920;BME280;63804;53.120;8.764;2023-04-26T07:17:49;101785.09;;;7.92;61.58
54920;BME280;63804;53.120;8.764;2023-04-26T07:20:16;101781.47;;;7.95;61.20
54920;BME280;63804;53.120;8.764;2023-04-26T07:22:46;101779.91;;;8.10;61.17
54920;BME280;63804;53.120;8.764;2023-04-26T07:25:16;101780.63;;;8.13;60.40
54920;BME280;63804;53.120;8.764;2023-04-26T07:27:43;101780.38;;;8.37;59.82
54920;BME280;63804;53.120;8.764;2023-04-26T07:30:11;101779.34;;;8.58;59.28
54920;BME280;63804;53.120;8.764;2023-04-26T07:32:40;101783.03;;;8.73;58.37
54920;BME280;63804;53.120;8.764;2023-04-26T07:35:09;101783.72;;;8.76;58.32
54920;BME280;63804;53.120;8.764;2023-04-26T07:37:44;101785.28;;;8.81;58.13
54920;BME280;63804;53.120;8.764;2023-04-26T07:40:11;101790.44;;;9.01;57.37
54920;BME280;63804;53.120;8.764;2023-04-26T07:42:41;101778.63;;;9.25;56.35
54920;BME280;63804;53.120;8.764;2023-04-26T07:45:09;101788.31;;;9.42;55.65
54920;BME280;63804;53.120;8.764;2023-04-26T07:47:39;101782.66;;;9.33;56.27
54920;BME280;63804;53.120;8.764;2023-04-26T07:50:07;101785.13;;;9.36;55.97
54920;BME280;63804;53.120;8.764;2023-04-26T07:52:36;101791.34;;;9.35;56.16
54920;BME280;63804;53.120;8.764;2023-04-26T07:55:07;101791.03;;;9.41;55.86
54920;BME280;63804;53.120;8.764;2023-04-26T07:57:34;101791.03;;;9.41;55.96
54920;BME280;63804;53.120;8.764;2023-04-26T08:00:01;101792.53;;;9.46;55.67
54920;BME280;63804;53.120;8.764;2023-04-26T08:02:31;101785.91;;;9.38;55.96
54920;BME280;63804;53.120;8.764;2023-04-26T08:05:13;101793.38;;;9.47;56.21
54920;BME280;63804;53.120;8.764;2023-04-26T08:07:43;101786.44;;;9.44;55.57
54920;BME280;63804;53.120;8.764;2023-04-26T08:10:10;101785.59;;;9.26;56.07
54920;BME280;63804;53.120;8.764;2023-04-26T08:12:38;101793.06;;;9.36;56.27
54920;BME280;63804;53.120;8.764;2023-04-26T08:15:05;101788.88;;;9.32;56.01
54920;BME280;63804;53.120;8.764;2023-04-26T08:17:36;101785.38;;;9.31;55.90
54920;BME280;63804;53.120;8.764;2023-04-26T08:20:04;101789.41;;;9.38;55.73
54920;BME280;63804;53.120;8.764;2023-04-26T08:22:35;101798.38;;;9.36;55.49
54920;BME280;63804;53.120;8.764;2023-04-26T08:25:02;101791.13;;;9.39;55.67
54920;BME280;63804;53.120;8.764;2023-04-26T08:27:32;101793.28;;;9.48;55.05
54920;BME280;63804;53.120;8.764;2023-04-26T08:30:00;101801.66;;;9.57;54.92
54920;BME280;63804;53.120;8.764;2023-04-26T08:32:27;101792.63;;;9.61;53.83
54920;BME280;63804;53.120;8.764;2023-04-26T08:34:54;101797.72;;;9.81;52.98
54920;BME280;63804;53.120;8.764;2023-04-26T08:37:21;101786.22;;;10.14;52.37
54920;BME280;63804;53.120;8.764;2023-04-26T08:39:51;101785.81;;;10.21;51.88
54920;BME280;63804;53.120;8.764;2023-04-26T08:42:19;101781.97;;;10.11;51.29
54920;BME280;63804;53.120;8.764;2023-04-26T08:44:55;101790.50;;;10.00;51.54
54920;BME280;63804;53.120;8.764;2023-04-26T08:47:42;101797.34;;;9.71;51.95
54920;BME280;63804;53.120;8.764;2023-04-26T08:50:14;101806.47;;;9.66;51.98
54920;BME280;63804;53.120;8.764;2023-04-26T08:52:42;101793.66;;;9.58;51.29
54920;BME280;63804;53.120;8.764;2023-04-26T08:55:12;101794.16;;;9.65;51.34
54920;BME280;63804;53.120;8.764;2023-04-26T08:57:45;101796.78;;;9.82;51.12
54920;BME280;63804;53.120;8.764;2023-04-26T09:00:19;101798.16;;;9.89;50.85
54920;BME280;63804;53.120;8.764;2023-04-26T09:02:48;101786.06;;;10.01;50.58
54920;BME280;63804;53.120;8.764;2023-04-26T09:05:19;101795.44;;;10.07;50.02
54920;BME280;63804;53.120;8.764;2023-04-26T09:08:01;101792.03;;;10.05;50.21
54920;BME280;63804;53.120;8.764;2023-04-26T09:10:30;101788.69;;;10.01;49.62
54920;BME280;63804;53.120;8.764;2023-04-26T09:12:58;101797.59;;;10.16;49.30
54920;BME280;63804;53.120;8.764;2023-04-26T09:15:28;101803.81;;;10.15;49.34
54920;BME280;63804;53.120;8.764;2023-04-26T09:17:55;101803.09;;;9.95;49.84
54920;BME280;63804;53.120;8.764;2023-04-26T09:20:27;101812.38;;;9.71;50.77
54920;BME280;63804;53.120;8.764;2023-04-26T09:23:08;101813.53;;;9.65;50.38
54920;BME280;63804;53.120;8.764;2023-04-26T09:25:36;101815.44;;;9.46;50.37
54920;BME280;63804;53.120;8.764;2023-04-26T09:28:18;101829.75;;;9.59;49.95
54920;BME280;63804;53.120;8.764;2023-04-26T09:30:49;101827.88;;;9.44;51.32
54920;BME280;63804;53.120;8.764;2023-04-26T09:33:18;101830.09;;;9.36;52.06
54920;BME280;63804;53.120;8.764;2023-04-26T09:35:45;101827.03;;;9.43;52.44
54920;BME280;63804;53.120;8.764;2023-04-26T09:38:14;101828.50;;;9.49;52.62
54920;BME280;63804;53.120;8.764;2023-04-26T09:40:48;101832.78;;;9.51;51.97
54920;BME280;63804;53.120;8.764;2023-04-26T09:43:22;101835.78;;;9.61;51.13
54920;BME280;63804;53.120;8.764;2023-04-26T09:45:50;101826.84;;;9.64;49.82
54920;BME280;63804;53.120;8.764;2023-04-26T09:50:58;101837.22;;;9.84;49.98
54920;BME280;63804;53.120;8.764;2023-04-26T09:53:44;101828.78;;;9.77;49.57
54920;BME280;63804;53.120;8.764;2023-04-26T09:56:14;101834.06;;;9.77;50.28
54920;BME280;63804;53.120;8.764;2023-04-26T09:58:55;101840.38;;;9.75;51.06
54920;BME280;63804;53.120;8.764;2023-04-26T10:01:25;101834.47;;;9.70;52.23
54920;BME280;63804;53.120;8.764;2023-04-26T10:03:54;101829.47;;;9.81;52.45
54920;BME280;63804;53.120;8.764;2023-04-26T10:06:22;101830.75;;;9.90;52.72
54920;BME280;63804;53.120;8.764;2023-04-26T10:08:50;101832.13;;;9.81;52.71
54920;BME280;63804;53.120;8.764;2023-04-26T10:11:20;101832.59;;;9.72;52.78
54920;BME280;63804;53.120;8.764;2023-04-26T10:13:49;101835.16;;;9.73;52.70
54920;BME280;63804;53.120;8.764;2023-04-26T10:16:19;101833.22;;;9.77;52.08
54920;BME280;63804;53.120;8.764;2023-04-26T10:18:50;101834.81;;;9.80;51.76
54920;BME280;63804;53.120;8.764;2023-04-26T10:21:21;101827.25;;;9.89;51.72
54920;BME280;63804;53.120;8.764;2023-04-26T10:23:50;101827.22;;;10.22;50.84
54920;BME280;63804;53.120;8.764;2023-04-26T10:29:13;101826.66;;;11.11;48.14
54920;BME280;63804;53.120;8.764;2023-04-26T10:34:31;101836.81;;;10.41;51.21
54920;BME280;63804;53.120;8.764;2023-04-26T10:37:09;101856.69;;;9.83;55.06
54920;BME280;63804;53.120;8.764;2023-04-26T10:39:41;101853.00;;;9.18;58.63
54920;BME280;63804;53.120;8.764;2023-04-26T10:42:23;101852.25;;;8.79;62.02
54920;BME280;63804;53.120;8.764;2023-04-26T10:44:55;101847.97;;;8.77;61.05
54920;BME280;63804;53.120;8.764;2023-04-26T10:47:35;101842.44;;;9.00;60.91
54920;BME280;63804;53.120;8.764;2023-04-26T10:50:05;101854.56;;;9.22;60.17
54920;BME280;63804;53.120;8.764;2023-04-26T10:52:35;101847.09;;;9.47;59.93
54920;BME280;63804;53.120;8.764;2023-04-26T10:55:02;101851.91;;;9.57;59.20
54920;BME280;63804;53.120;8.764;2023-04-26T10:57:54;101846.25;;;9.80;59.48
54920;BME280;63804;53.120;8.764;2023-04-26T11:00:27;101842.16;;;9.74;59.77
54920;BME280;63804;53.120;8.764;2023-04-26T11:03:08;101843.09;;;9.73;60.41
54920;BME280;63804;53.120;8.764;2023-04-26T11:05:50;101840.06;;;9.81;59.96
54920;BME280;63804;53.120;8.764;2023-04-26T11:08:28;101838.09;;;9.85;60.22
54920;BME280;63804;53.120;8.764;2023-04-26T11:13:31;101822.59;;;10.10;58.74
54920;BME280;63804;53.120;8.764;2023-04-26T11:16:00;101819.06;;;10.27;58.01
54920;BME280;63804;53.120;8.764;2023-04-26T11:18:34;101813.94;;;10.40;58.11
54920;BME280;63804;53.120;8.764;2023-04-26T11:21:05;101816.41;;;10.59;57.58
54920;BME280;63804;53.120;8.764;2023-04-26T11:23:33;101813.72;;;10.74;57.23
54920;BME280;63804;53.120;8.764;2023-04-26T11:26:04;101811.00;;;10.76;55.55
54920;BME280;63804;53.120;8.764;2023-04-26T11:28:36;101801.66;;;10.85;55.46
54920;BME280;63804;53.120;8.764;2023-04-26T11:31:07;101799.97;;;10.84;55.29
54920;BME280;63804;53.120;8.764;2023-04-26T11:33:43;101802.19;;;10.91;55.14
54920;BME280;63804;53.120;8.764;2023-04-26T11:36:16;101798.13;;;11.00;54.17
54920;BME280;63804;53.120;8.764;2023-04-26T11:38:45;101791.84;;;11.31;52.73
54920;BME280;63804;53.120;8.764;2023-04-26T11:41:12;101797.38;;;11.57;51.58
54920;BME280;63804;53.120;8.764;2023-04-26T11:43:42;101793.59;;;11.61;49.44
54920;BME280;63804;53.120;8.764;2023-04-26T11:46:09;101793.00;;;11.70;47.88
54920;BME280;63804;53.120;8.764;2023-04-26T11:48:41;101790.91;;;11.75;47.04
54920;BME280;63804;53.120;8.764;2023-04-26T11:51:08;101786.56;;;11.60;47.76
54920;BME280;63804;53.120;8.764;2023-04-26T11:53:41;101803.69;;;11.26;48.68
54920;BME280;63804;53.120;8.764;2023-04-26T11:56:19;101806.34;;;10.95;49.19
54920;BME280;63804;53.120;8.764;2023-04-26T11:58:51;101809.25;;;10.61;51.37
54920;BME280;63804;53.120;8.764;2023-04-26T12:01:29;101819.81;;;10.29;52.56
54920;BME280;63804;53.120;8.764;2023-04-26T12:03:58;101820.38;;;10.18;53.44
54920;BME280;63804;53.120;8.764;2023-04-26T12:06:41;101827.22;;;10.22;52.90
54920;BME280;63804;53.120;8.764;2023-04-26T12:09:08;101833.53;;;10.04;53.67
54920;BME280;63804;53.120;8.764;2023-04-26T12:11:39;101837.50;;;9.95;54.10
54920;BME280;63804;53.120;8.764;2023-04-26T12:14:09;101835.66;;;9.97;54.01
54920;BME280;63804;53.120;8.764;2023-04-26T12:16:41;101843.03;;;9.91;54.62
54920;BME280;63804;53.120;8.764;2023-04-26T12:19:08;101837.34;;;9.98;54.29
54920;BME280;63804;53.120;8.764;2023-04-26T12:21:41;101835.56;;;10.15;52.74
54920;BME280;63804;53.120;8.764;2023-04-26T12:24:28;101837.66;;;10.41;51.20
54920;BME280;63804;53.120;8.764;2023-04-26T12:27:01;101838.53;;;10.58;51.42
54920;BME280;63804;53.120;8.764;2023-04-26T12:29:35;101842.38;;;10.68;50.13
54920;BME280;63804;53.120;8.764;2023-04-26T12:32:04;101842.78;;;10.60;50.65
54920;BME280;63804;53.120;8.764;2023-04-26T12:34:31;101848.44;;;10.54;51.51
54920;BME280;63804;53.120;8.764;2023-04-26T12:36:58;101848.34;;;10.56;52.11
54920;BME280;63804;53.120;8.764;2023-04-26T12:39:25;101844.53;;;10.45;52.46
54920;BME280;63804;53.120;8.764;2023-04-26T12:44:31;101839.38;;;10.74;52.34
54920;BME280;63804;53.120;8.764;2023-04-26T12:46:58;101846.09;;;10.80;52.00
54920;BME280;63804;53.120;8.764;2023-04-26T12:49:26;101838.94;;;10.82;52.02
54920;BME280;63804;53.120;8.764;2023-04-26T12:52:01;101840.19;;;10.90;51.75
54920;BME280;63804;53.120;8.764;2023-04-26T12:54:31;101839.63;;;10.85;51.22
54920;BME280;63804;53.120;8.764;2023-04-26T12:56:58;101842.47;;;10.66;50.82
54920;BME280;63804;53.120;8.764;2023-04-26T12:59:25;101841.78;;;10.47;50.80
54920;BME280;63804;53.120;8.764;2023-04-26T13:01:52;101846.03;;;10.34;51.97
54920;BME280;63804;53.120;8.764;2023-04-26T13:04:19;101846.00;;;10.18;53.05
54920;BME280;63804;53.120;8.764;2023-04-26T13:06:47;101853.09;;;10.17;53.89
54920;BME280;63804;53.120;8.764;2023-04-26T13:09:14;101854.63;;;10.21;54.51
54920;BME280;63804;53.120;8.764;2023-04-26T13:11:41;101856.25;;;10.24;54.11
54920;BME280;63804;53.120;8.764;2023-04-26T13:14:08;101852.13;;;10.36;53.96
54920;BME280;63804;53.120;8.764;2023-04-26T13:16:35;101854.00;;;10.49;53.55
54920;BME280;63804;53.120;8.764;2023-04-26T13:19:02;101850.75;;;10.60;52.97
54920;BME280;63804;53.120;8.764;2023-04-26T13:21:29;101859.56;;;10.77;52.91
54920;BME280;63804;53.120;8.764;2023-04-26T13:23:56;101849.00;;;10.91;52.26